Time;durP1;ratioP1;P1;durP2;ratioP2;P2;SDS_P1;SDS_P2;PMS_P1;PMS_P2;Temp;Humidity;BMP_temperature;BMP_pressure;BME280_temperature;BME280_humidity;BME280_pressure;Samples;Min_cycle;Max_cycle;Signal;HPM_P1;HPM_P2
2021/05/10 00:01:59;;;;;;;11.78;6.58;;;;;;;7.66;59.33;100294.53;1810317;79;21358;-41
2021/05/10 00:04:27;;;;;;;8.88;5.62;;;;;;;7.64;59.36;100299.47;1810674;79;21154;-41
2021/05/10 00:06:55;;;;;;;9.53;5.97;;;;;;;7.57;59.53;100292.38;1798744;78;21130;-41
2021/05/10 00:09:24;;;;;;;10.53;6.28;;;;;;;7.54;59.51;100290.88;1784176;79;21157;-41
2021/05/10 00:11:51;;;;;;;9.75;5.65;;;;;;;7.52;59.67;100294.44;1789193;79;21106;-41
2021/05/10 00:14:37;;;;;;;10.88;5.85;;;;;;;7.50;59.68;100290.73;1803022;79;21450;-41
2021/05/10 00:16:54;;;;;;;8.65;5.25;;;;;;;7.50;59.71;100283.19;1783343;79;21011;-42
2021/05/10 00:19:23;;;;;;;7.60;5.42;;;;;;;7.48;59.74;100288.09;1782191;79;21625;-41
2021/05/10 00:21:53;;;;;;;10.57;5.97;;;;;;;7.46;59.70;100290.30;1791137;79;21059;-41
2021/05/10 00:24:21;;;;;;;9.68;5.70;;;;;;;7.42;59.78;100288.80;1811897;79;21091;-41
2021/05/10 00:26:49;;;;;;;11.43;5.87;;;;;;;7.37;59.85;100286.25;1796476;79;21273;-41
2021/05/10 00:29:18;;;;;;;8.85;5.90;;;;;;;7.35;59.81;100289.28;1794437;79;21149;-41
2021/05/10 00:31:47;;;;;;;8.28;5.28;;;;;;;7.32;59.88;100283.15;1783689;78;22138;-41
2021/05/10 00:34:15;;;;;;;8.03;5.95;;;;;;;7.32;59.87;100279.66;1781966;79;21561;-41
2021/05/10 00:36:44;;;;;;;8.83;5.85;;;;;;;7.30;59.90;100283.23;1813052;79;21110;-41
2021/05/10 00:39:12;;;;;;;9.45;6.00;;;;;;;7.29;59.95;100281.09;1787784;79;21161;-41
2021/05/10 00:41:40;;;;;;;10.28;6.12;;;;;;;7.29;59.93;100287.03;1792977;79;20996;-41
2021/05/10 00:44:09;;;;;;;9.93;5.87;;;;;;;7.28;59.67;100291.63;1807859;79;21158;-41
2021/05/10 00:46:37;;;;;;;9.58;5.45;;;;;;;7.29;59.60;100300.52;1804145;78;21150;-41
2021/05/10 00:49:06;;;;;;;8.83;5.20;;;;;;;7.29;59.83;100299.97;1790764;79;21165;-41
2021/05/10 00:51:34;;;;;;;8.73;5.95;;;;;;;7.30;60.12;100306.96;1790490;79;21275;-41
2021/05/10 00:54:03;;;;;;;10.20;5.90;;;;;;;7.28;60.10;100310.52;1784233;79;21161;-41
2021/05/10 00:56:31;;;;;;;9.83;5.75;;;;;;;7.27;60.15;100311.61;1812054;79;21031;-41
2021/05/10 00:58:59;;;;;;;9.23;5.87;;;;;;;7.26;59.91;100311.95;1779918;79;21240;-41
2021/05/10 01:01:27;;;;;;;8.30;6.22;;;;;;;7.26;60.46;100306.55;1808352;79;21584;-41
2021/05/10 01:03:55;;;;;;;9.20;6.10;;;;;;;7.26;60.29;100307.32;1804463;79;21477;-42
2021/05/10 01:06:23;;;;;;;9.63;6.22;;;;;;;7.24;59.80;100308.76;1736582;81;21164;-41
2021/05/10 01:08:52;;;;;;;8.88;6.28;;;;;;;7.21;60.07;100311.52;1772670;80;21038;-41
2021/05/10 01:11:20;;;;;;;11.50;6.70;;;;;;;7.20;60.14;100310.50;1731820;82;21194;-41
2021/05/10 01:13:49;;;;;;;10.08;5.75;;;;;;;7.18;60.15;100315.40;1735072;82;21178;-41
2021/05/10 01:16:17;;;;;;;9.20;6.05;;;;;;;7.14;60.07;100315.79;1716338;82;21202;-41
2021/05/10 01:18:46;;;;;;;8.55;6.00;;;;;;;7.13;60.14;100313.64;1742544;80;21169;-41
2021/05/10 01:21:14;;;;;;;10.32;6.12;;;;;;;7.11;60.34;100308.34;1754943;79;21566;-41
2021/05/10 01:23:44;;;;;;;8.73;5.95;;;;;;;7.08;60.37;100304.90;1810938;79;20999;-41
2021/05/10 01:26:14;;;;;;;9.65;6.15;;;;;;;7.07;60.32;100308.14;1809335;79;21150;-41
2021/05/10 01:28:42;;;;;;;9.85;6.15;;;;;;;7.07;60.16;100308.73;1813270;79;21369;-42
2021/05/10 01:31:14;;;;;;;9.93;6.00;;;;;;;7.03;59.69;100308.53;1810116;79;21127;-41
2021/05/10 01:33:40;;;;;;;;;;;;;;;7.03;59.64;100315.27;1792272;79;21142;-41
2021/05/10 01:36:08;;;;;;;9.10;6.10;;;;;;;7.03;59.98;100305.04;1797870;79;20260;-41
2021/05/10 01:38:36;;;;;;;7.70;5.65;;;;;;;6.91;60.26;100316.44;1813981;78;21154;-41
2021/05/10 01:41:05;;;;;;;10.03;5.90;;;;;;;6.89;60.26;100315.94;1789689;78;21188;-41
2021/05/10 01:43:33;;;;;;;8.58;5.80;;;;;;;6.90;60.43;100318.33;1791228;79;21559;-41
2021/05/10 01:46:01;;;;;;;8.63;6.03;;;;;;;6.89;60.57;100314.04;1787517;79;21139;-41
2021/05/10 01:48:29;;;;;;;14.80;5.75;;;;;;;6.91;60.37;100319.13;1806449;79;21804;-41
2021/05/10 01:50:57;;;;;;;7.87;5.72;;;;;;;6.92;60.48;100324.19;1784697;79;21130;-42
2021/05/10 01:53:25;;;;;;;11.40;5.90;;;;;;;6.94;60.62;100322.54;1784943;79;21240;-41
2021/05/10 01:55:53;;;;;;;9.35;5.67;;;;;;;6.95;60.40;100328.98;1790657;79;21360;-41
2021/05/10 01:58:21;;;;;;;8.85;5.12;;;;;;;6.97;60.30;100334.06;1781963;79;20975;-42
2021/05/10 02:00:49;;;;;;;7.70;5.70;;;;;;;6.98;60.38;100331.59;1783792;79;21115;-42
2021/05/10 02:03:21;;;;;;;11.18;6.35;;;;;;;6.96;60.17;100334.62;1782317;79;26757;-42
2021/05/10 02:05:51;;;;;;;7.87;5.97;;;;;;;6.97;60.20;100330.79;1787527;79;21197;-42
2021/05/10 02:08:19;;;;;;;8.28;5.35;;;;;;;6.96;59.97;100338.66;1807147;79;21549;-42
2021/05/10 02:10:52;;;;;;;9.73;6.10;;;;;;;6.97;60.11;100330.02;1789211;79;21027;-42
2021/05/10 02:13:24;;;;;;;10.40;6.30;;;;;;;6.98;60.25;100336.98;1793266;79;21115;-42
2021/05/10 02:15:55;;;;;;;8.78;6.00;;;;;;;6.97;60.29;100336.77;1807079;79;21111;-42
2021/05/10 02:18:26;;;;;;;9.28;6.05;;;;;;;6.95;60.39;100334.37;1806982;79;22102;-42
2021/05/10 02:20:54;;;;;;;11.03;5.87;;;;;;;6.95;60.34;100336.27;1751545;80;21101;-42
2021/05/10 02:23:33;;;;;;;8.03;5.87;;;;;;;6.94;60.49;100338.72;1760172;80;21106;-42
2021/05/10 02:26:03;;;;;;;8.90;6.10;;;;;;;6.93;60.52;100337.91;1797208;79;21113;-42
2021/05/10 02:28:32;;;;;;;9.18;5.80;;;;;;;6.94;60.54;100336.02;1813957;79;21142;-42
2021/05/10 02:31:02;;;;;;;10.28;5.58;;;;;;;6.91;60.34;100340.69;1811183;79;23432;-42
2021/05/10 02:33:32;;;;;;;10.63;6.37;;;;;;;6.90;60.27;100344.48;1805807;78;21589;-42
2021/05/10 02:36:00;;;;;;;9.85;5.95;;;;;;;6.88;60.12;100338.60;1806190;79;21182;-42
2021/05/10 02:38:28;;;;;;;8.73;6.12;;;;;;;6.87;60.28;100336.45;1802700;79;20976;-42
2021/05/10 02:40:57;;;;;;;8.65;5.47;;;;;;;6.89;60.46;100338.84;1760391;80;21149;-42
2021/05/10 02:43:26;;;;;;;6.97;5.40;;;;;;;6.90;60.43;100337.75;1771057;79;21197;-42
2021/05/10 02:45:54;;;;;;;8.40;5.65;;;;;;;6.88;60.42;100343.99;1774688;79;21624;-42
2021/05/10 02:48:23;;;;;;;7.78;5.25;;;;;;;6.87;60.48;100347.23;1780901;79;21135;-42
2021/05/10 02:50:51;;;;;;;8.38;5.85;;;;;;;6.88;60.53;100348.83;1785338;79;21691;-42
2021/05/10 02:56:08;;;;;;;9.85;5.92;;;;;;;6.89;60.80;100350.98;1871941;76;22523;-41
2021/05/10 02:58:36;;;;;;;7.40;5.28;;;;;;;6.83;61.00;100353.56;1825969;78;21023;-41
2021/05/10 03:01:04;;;;;;;9.10;5.37;;;;;;;6.91;60.82;100355.52;1841431;77;21324;-41
2021/05/10 03:03:33;;;;;;;7.40;5.10;;;;;;;7.03;60.05;100358.96;1856894;77;21039;-41
2021/05/10 03:06:01;;;;;;;10.25;4.85;;;;;;;7.13;60.17;100363.53;1848322;75;21003;-41
2021/05/10 03:08:29;;;;;;;7.08;5.05;;;;;;;7.21;59.81;100358.70;1851649;75;21702;-41
2021/05/10 03:10:58;;;;;;;7.90;4.87;;;;;;;7.29;59.81;100357.96;1825973;78;21022;-41
2021/05/10 03:13:26;;;;;;;8.53;4.93;;;;;;;7.35;59.79;100367.51;1841050;77;21200;-41
2021/05/10 03:15:55;;;;;;;6.15;4.92;;;;;;;7.42;59.85;100363.78;1809962;77;21014;-41
2021/05/10 03:18:24;;;;;;;5.75;4.87;;;;;;;7.49;59.93;100365.23;1840203;77;21569;-41
2021/05/10 03:20:52;;;;;;;7.72;5.05;;;;;;;7.55;59.99;100364.75;1848468;77;21620;-41
2021/05/10 03:23:21;;;;;;;8.63;5.15;;;;;;;7.60;59.77;100365.19;1841048;75;21546;-41
2021/05/10 03:25:50;;;;;;;7.50;5.00;;;;;;;7.64;60.02;100368.28;1835080;77;21420;-41
2021/05/10 03:28:18;;;;;;;7.40;5.12;;;;;;;7.69;59.92;100368.69;1841653;75;21154;-41
2021/05/10 03:30:46;;;;;;;8.13;5.00;;;;;;;7.70;59.69;100367.00;1848458;77;21043;-42
2021/05/10 03:33:13;;;;;;;6.55;4.90;;;;;;;7.74;59.56;100372.03;1787393;80;21211;-42
2021/05/10 03:35:41;;;;;;;9.15;4.95;;;;;;;7.80;59.28;100367.25;1813063;78;21213;-42
2021/05/10 03:38:09;;;;;;;7.28;5.25;;;;;;;7.87;58.91;100371.64;1815647;78;21243;-42
2021/05/10 03:40:37;;;;;;;8.25;5.08;;;;;;;7.93;58.66;100368.23;1789625;80;21003;-42
2021/05/10 03:43:06;;;;;;;7.85;5.50;;;;;;;7.97;58.28;100378.08;1759836;78;21162;-41
2021/05/10 03:45:36;;;;;;;7.10;5.53;;;;;;;8.01;57.90;100377.69;1804644;78;21554;-42
2021/05/10 03:48:06;;;;;;;8.03;5.22;;;;;;;8.06;57.85;100377.53;1790873;78;21175;-42
2021/05/10 03:50:34;;;;;;;11.08;5.70;;;;;;;8.11;57.74;100380.63;1808144;77;22047;-42
2021/05/10 03:53:01;;;;;;;11.30;5.72;;;;;;;8.16;57.75;100378.56;1783698;78;21158;-41
2021/05/10 03:55:29;;;;;;;8.25;5.10;;;;;;;8.25;57.73;100386.11;1807534;78;20996;-41
2021/05/10 03:57:58;;;;;;;10.63;5.78;;;;;;;8.33;57.14;100387.81;1793147;78;21165;-42
2021/05/10 04:00:26;;;;;;;8.75;5.35;;;;;;;8.42;57.03;100391.30;1777391;79;21131;-42
2021/05/10 04:02:54;;;;;;;9.18;5.67;;;;;;;8.51;56.71;100392.87;1798982;78;21479;-42
2021/05/10 04:08:05;;;;;;;9.13;5.47;;;;;;;8.68;56.59;100394.73;1824738;78;21112;-42
2021/05/10 04:15:51;;;;;;;8.10;5.92;;;;;;;8.91;57.83;100396.11;1801882;78;21366;-42
2021/05/10 04:18:21;;;;;;;8.68;5.92;;;;;;;8.98;57.70;100399.67;1809854;77;21620;-42
2021/05/10 04:20:49;;;;;;;;;;;;;;;9.07;57.90;100408.00;1779125;78;21593;-41
2021/05/10 04:23:20;;;;;;;10.43;6.28;;;;;;;9.13;57.52;100405.36;1781931;78;20339;-42
2021/05/10 04:25:51;;;;;;;11.57;6.70;;;;;;;9.15;57.50;100408.52;1761811;79;21383;-42
2021/05/10 04:28:22;;;;;;;11.20;7.03;;;;;;;9.28;57.39;100396.47;1797483;78;21363;-42
2021/05/10 04:30:52;;;;;;;10.65;6.83;;;;;;;9.39;57.67;100394.98;1789996;80;21181;-42
2021/05/10 04:33:34;;;;;;;8.48;5.70;;;;;;;9.50;57.69;100397.54;1806590;78;21181;-42
2021/05/10 04:36:03;;;;;;;9.13;6.58;;;;;;;9.60;57.66;100397.17;1793166;78;21627;-42
2021/05/10 04:38:31;;;;;;;11.95;7.17;;;;;;;9.72;57.39;100404.59;1791397;79;21821;-42
2021/05/10 04:41:00;;;;;;;11.12;7.10;;;;;;;9.82;57.11;100410.98;1784996;80;21461;-42
2021/05/10 04:43:28;;;;;;;9.20;6.22;;;;;;;9.92;56.70;100408.66;1822189;78;21675;-42
2021/05/10 04:45:59;;;;;;;11.85;6.83;;;;;;;10.03;56.50;100415.29;1781756;80;21586;-42
2021/05/10 04:48:27;;;;;;;11.28;6.72;;;;;;;10.14;55.58;100419.75;1813525;77;28204;-42
2021/05/10 04:50:56;;;;;;;9.43;6.53;;;;;;;10.26;55.38;100420.42;1797786;78;21159;-42
2021/05/10 04:53:24;;;;;;;9.60;6.92;;;;;;;10.37;55.43;100418.32;1781500;78;21197;-42
2021/05/10 04:55:53;;;;;;;10.88;6.90;;;;;;;10.51;55.21;100416.68;1805612;78;21154;-42
2021/05/10 04:58:21;;;;;;;10.50;7.92;;;;;;;10.63;54.59;100418.09;1796620;79;21157;-42
2021/05/10 05:00:49;;;;;;;11.05;7.53;;;;;;;10.74;54.71;100418.48;1790719;79;21150;-42
2021/05/10 05:03:19;;;;;;;9.83;6.27;;;;;;;10.87;54.09;100421.45;1799540;79;21130;-42
2021/05/10 05:05:47;;;;;;;12.20;7.28;;;;;;;11.01;53.78;100421.13;1800568;79;21186;-42
2021/05/10 05:08:15;;;;;;;8.53;5.87;;;;;;;11.13;53.45;100430.11;1816589;79;21134;-42
2021/05/10 05:10:43;;;;;;;8.35;5.97;;;;;;;11.25;53.27;100427.39;1787795;77;21178;-42
2021/05/10 05:13:23;;;;;;;9.78;6.10;;;;;;;11.37;52.96;100423.91;1801282;79;21462;-42
2021/05/10 05:15:51;;;;;;;9.53;6.08;;;;;;;11.50;52.90;100428.21;1805656;79;21600;-42
2021/05/10 05:18:19;;;;;;;7.20;5.50;;;;;;;11.63;53.10;100429.78;1784034;80;21301;-42
2021/05/10 05:20:47;;;;;;;8.53;5.47;;;;;;;11.76;53.06;100436.05;1798765;79;21381;-42
2021/05/10 05:23:20;;;;;;;8.75;5.67;;;;;;;11.88;52.96;100436.59;1791486;79;22116;-42
2021/05/10 05:25:55;;;;;;;7.25;5.30;;;;;;;12.01;52.50;100436.79;1792663;79;21146;-42
2021/05/10 05:28:24;;;;;;;6.28;4.25;;;;;;;12.15;52.42;100444.04;1790532;79;21158;-42
2021/05/10 05:30:54;;;;;;;5.00;3.58;;;;;;;12.30;51.53;100443.30;1793443;79;21245;-42
2021/05/10 05:33:21;;;;;;;6.73;4.10;;;;;;;12.47;48.98;100443.03;1816748;79;21170;-42
2021/05/10 05:35:52;;;;;;;9.85;4.97;;;;;;;12.63;49.10;100449.30;1802889;77;21561;-42
2021/05/10 05:38:20;;;;;;;6.12;4.40;;;;;;;12.77;49.39;100445.41;1784740;79;21145;-42
2021/05/10 05:40:48;;;;;;;6.95;4.95;;;;;;;12.90;49.63;100444.98;1784843;79;21126;-42
2021/05/10 05:43:16;;;;;;;7.53;5.33;;;;;;;13.05;49.44;100440.71;1816240;79;21343;-42
2021/05/10 05:45:44;;;;;;;5.20;3.40;;;;;;;13.19;49.62;100449.27;1814257;79;21561;-42
2021/05/10 05:48:13;;;;;;;5.85;4.17;;;;;;;13.32;45.93;100449.41;1800378;79;21565;-42
2021/05/10 05:50:42;;;;;;;3.72;3.00;;;;;;;13.43;46.64;100438.78;1795586;79;21661;-42
2021/05/10 05:53:10;;;;;;;4.15;3.10;;;;;;;13.55;45.94;100433.25;1784592;79;21585;-42
2021/05/10 05:55:39;;;;;;;5.90;3.70;;;;;;;13.67;46.25;100435.86;1812951;78;21186;-43
2021/05/10 05:58:07;;;;;;;4.92;3.55;;;;;;;13.79;46.47;100437.70;1787807;79;21615;-42
2021/05/10 06:00:35;;;;;;;4.97;3.65;;;;;;;13.89;46.32;100441.25;1807318;78;21127;-42
2021/05/10 06:03:04;;;;;;;6.25;3.52;;;;;;;14.01;46.06;100436.23;1784358;80;21060;-42
2021/05/10 06:05:32;;;;;;;4.40;3.22;;;;;;;14.09;44.84;100430.58;1785036;78;21157;-42
2021/05/10 06:08:00;;;;;;;5.37;3.20;;;;;;;14.18;45.06;100443.46;1784922;79;21386;-42
2021/05/10 06:10:28;;;;;;;5.42;3.25;;;;;;;14.29;44.90;100440.94;1802100;78;21161;-42
2021/05/10 06:12:57;;;;;;;4.25;2.98;;;;;;;14.43;44.52;100439.10;1805215;78;21752;-42
2021/05/10 06:15:25;;;;;;;3.70;2.50;;;;;;;14.56;43.13;100446.02;1796307;78;21114;-42
2021/05/10 06:17:54;;;;;;;4.30;3.00;;;;;;;14.64;42.75;100443.63;1756377;80;21632;-42
2021/05/10 06:20:22;;;;;;;3.62;2.10;;;;;;;14.71;42.50;100447.88;1800852;78;21369;-42
2021/05/10 06:22:50;;;;;;;4.67;2.55;;;;;;;14.81;42.17;100442.41;1807354;77;21650;-42
2021/05/10 06:25:18;;;;;;;3.33;2.15;;;;;;;14.91;41.20;100446.69;1805931;78;21089;-42
2021/05/10 06:27:46;;;;;;;2.85;1.80;;;;;;;14.99;40.52;100440.22;1793056;78;21086;-42
2021/05/10 06:30:15;;;;;;;4.12;2.12;;;;;;;15.09;39.46;100449.19;1803140;79;21094;-42
2021/05/10 06:32:44;;;;;;;4.83;2.30;;;;;;;15.22;39.54;100446.48;1778169;80;22304;-42
2021/05/10 06:35:13;;;;;;;2.50;2.05;;;;;;;15.32;40.04;100447.03;1795205;78;21577;-42
2021/05/10 06:37:41;;;;;;;3.20;2.40;;;;;;;15.46;39.52;100458.19;1788803;80;21155;-42
2021/05/10 06:40:11;;;;;;;3.52;2.00;;;;;;;15.57;37.98;100440.06;1797184;77;21162;-42
2021/05/10 06:42:39;;;;;;;3.47;1.62;;;;;;;15.61;37.96;100454.57;1811608;78;21167;-42
2021/05/10 06:45:08;;;;;;;3.10;1.80;;;;;;;15.68;37.29;100445.70;1815824;78;22124;-42
2021/05/10 06:47:38;;;;;;;3.55;1.72;;;;;;;15.75;38.10;100449.33;1794818;78;21130;-42
2021/05/10 06:50:08;;;;;;;3.33;1.82;;;;;;;15.88;37.43;100450.69;1793405;78;21390;-41
2021/05/10 06:52:37;;;;;;;2.35;1.52;;;;;;;16.02;37.37;100450.13;1791468;78;21074;-42
2021/05/10 06:55:07;;;;;;;2.10;1.42;;;;;;;16.11;35.23;100440.28;1828041;77;21082;-43
2021/05/10 06:57:35;;;;;;;2.73;1.90;;;;;;;16.20;35.81;100441.58;1800440;78;21599;-42
2021/05/10 07:00:05;;;;;;;2.52;1.87;;;;;;;16.33;36.68;100446.23;1791933;80;21445;-42
2021/05/10 07:02:33;;;;;;;3.05;1.80;;;;;;;16.49;36.14;100450.36;1810530;78;21367;-42
2021/05/10 07:05:04;;;;;;;3.10;1.87;;;;;;;16.62;35.19;100450.92;1822817;78;21121;-42
2021/05/10 07:07:32;;;;;;;3.00;1.72;;;;;;;16.72;35.45;100445.36;1820997;78;21107;-41
2021/05/10 07:10:04;;;;;;;;;;;;;;;16.83;34.91;100444.91;1819582;78;22273;-41
2021/05/10 07:12:33;;;;;;;5.50;1.80;;;;;;;16.92;35.03;100447.55;1793970;78;20199;-42
2021/05/10 07:15:02;;;;;;;2.37;1.82;;;;;;;16.92;32.95;100447.55;1794663;78;21526;-42
2021/05/10 07:17:30;;;;;;;4.87;1.75;;;;;;;16.97;33.18;100448.38;1804124;78;21424;-42
2021/05/10 07:19:58;;;;;;;4.05;1.85;;;;;;;17.02;34.17;100452.14;1806866;77;21094;-41
2021/05/10 07:22:26;;;;;;;4.58;1.72;;;;;;;17.14;34.31;100449.12;1803105;78;21271;-41
2021/05/10 07:24:55;;;;;;;2.80;1.62;;;;;;;17.29;34.71;100451.63;1799874;78;22505;-41
2021/05/10 07:27:23;;;;;;;2.00;1.50;;;;;;;17.45;33.76;100448.64;1805818;78;21166;-42
2021/05/10 07:29:52;;;;;;;1.92;1.45;;;;;;;17.60;33.42;100439.97;1745259;81;21167;-41
2021/05/10 07:32:20;;;;;;;3.15;1.67;;;;;;;17.72;32.11;100430.05;1739320;81;21600;-41
2021/05/10 07:34:49;;;;;;;2.55;1.67;;;;;;;17.81;31.83;100435.41;1788247;78;21201;-41
2021/05/10 07:37:17;;;;;;;2.67;1.70;;;;;;;17.91;32.36;100429.03;1786735;78;21157;-41
2021/05/10 07:39:47;;;;;;;3.00;1.57;;;;;;;17.99;32.06;100427.89;1740000;81;21025;-41
2021/05/10 07:42:15;;;;;;;4.40;1.90;;;;;;;18.08;33.01;100418.15;1759968;79;21176;-42
2021/05/10 07:44:43;;;;;;;2.37;1.50;;;;;;;18.20;32.52;100422.53;1759115;81;21635;-41
2021/05/10 07:47:11;;;;;;;1.77;1.40;;;;;;;18.28;31.84;100424.71;1756431;81;21869;-42
2021/05/10 07:49:39;;;;;;;1.77;1.17;;;;;;;18.33;31.58;100423.76;1754827;81;21122;-41
2021/05/10 07:52:07;;;;;;;2.80;1.52;;;;;;;18.45;30.00;100423.41;1758344;81;21134;-41
2021/05/10 07:54:35;;;;;;;3.00;1.40;;;;;;;18.62;32.22;100422.73;1728504;81;21137;-42
2021/05/10 07:57:03;;;;;;;2.47;1.37;;;;;;;18.71;31.96;100422.94;1769135;80;21181;-41
2021/05/10 07:59:32;;;;;;;3.27;2.05;;;;;;;18.80;31.06;100422.77;1806561;78;21190;-41
2021/05/10 08:02:01;;;;;;;3.65;1.80;;;;;;;18.89;31.59;100423.17;1775301;80;21187;-41
2021/05/10 08:04:29;;;;;;;5.15;1.90;;;;;;;18.92;30.83;100427.13;1810849;77;21153;-41
2021/05/10 08:06:57;;;;;;;2.02;1.62;;;;;;;18.88;31.42;100429.08;1819667;78;21144;-41
2021/05/10 08:09:25;;;;;;;3.52;1.62;;;;;;;18.87;31.32;100422.80;1782632;78;21479;-42
2021/05/10 08:11:53;;;;;;;1.82;1.42;;;;;;;18.90;31.60;100422.59;1801154;78;22318;-41
2021/05/10 08:14:22;;;;;;;2.15;1.57;;;;;;;18.97;32.17;100421.24;1806048;78;21200;-41
2021/05/10 08:16:52;;;;;;;4.05;1.95;;;;;;;19.15;31.98;100420.67;1802433;77;21133;-41
2021/05/10 08:19:20;;;;;;;;;;;;;;;19.29;31.32;100416.55;1816368;78;21107;-42
2021/05/10 08:21:51;;;;;;;2.77;1.80;;;;;;;19.37;30.20;100412.62;1785028;79;20490;-42
2021/05/10 08:24:19;;;;;;;1.92;1.50;;;;;;;19.39;31.00;100407.52;1813343;78;21600;-42
2021/05/10 08:26:47;;;;;;;3.12;1.70;;;;;;;19.58;31.71;100406.95;1771631;80;21620;-42
2021/05/10 08:29:16;;;;;;;2.70;1.62;;;;;;;19.74;31.33;100408.70;1795493;79;21648;-42
2021/05/10 08:34:24;;;;;;;2.67;1.72;;;;;;;19.94;30.11;100394.09;1838403;77;22694;-42
2021/05/10 08:36:55;;;;;;;2.20;1.70;;;;;;;19.98;28.28;100393.31;1794049;78;20972;-42
2021/05/10 08:39:22;;;;;;;2.50;1.70;;;;;;;19.99;27.93;100395.68;1757603;80;21617;-42
2021/05/10 08:41:51;;;;;;;2.85;1.80;;;;;;;20.00;28.89;100393.69;1754040;80;21035;-42
2021/05/10 08:44:19;;;;;;;3.47;1.82;;;;;;;20.03;28.65;100388.19;1740219;81;21022;-42
2021/05/10 08:46:47;;;;;;;2.20;1.90;;;;;;;20.08;28.47;100382.86;1738281;81;21000;-42
2021/05/10 08:49:20;;;;;;;2.92;1.70;;;;;;;20.07;27.76;100371.66;1738380;81;21048;-42
2021/05/10 08:51:46;;;;;;;3.98;1.75;;;;;;;20.04;27.47;100371.88;1734967;81;21367;-42
2021/05/10 08:54:21;;;;;;;3.40;1.98;;;;;;;19.96;28.07;100370.31;1741334;81;21056;-42
2021/05/10 08:56:49;;;;;;;2.67;1.70;;;;;;;19.93;27.19;100367.77;1737808;81;21008;-42
2021/05/10 08:59:19;;;;;;;3.75;1.47;;;;;;;19.90;27.72;100363.63;1731420;81;21147;-42
2021/05/10 09:01:55;;;;;;;5.50;1.80;;;;;;;19.98;26.92;100366.58;1732354;81;21180;-42
2021/05/10 09:04:36;;;;;;;3.58;1.47;;;;;;;20.05;28.72;100355.52;1731770;81;21412;-42
2021/05/10 09:07:23;;;;;;;3.70;1.57;;;;;;;20.14;28.72;100354.50;1728236;81;21204;-42
2021/05/10 09:10:00;;;;;;;3.20;1.92;;;;;;;20.30;27.58;100354.86;1735963;81;21187;-42
2021/05/10 09:12:55;;;;;;;2.00;1.42;;;;;;;20.41;26.86;100351.28;1727732;81;21156;-42
2021/05/10 09:15:27;;;;;;;2.27;1.42;;;;;;;20.33;26.56;100349.92;1733330;81;21190;-42
2021/05/10 09:18:04;;;;;;;3.85;1.42;;;;;;;20.30;27.29;100352.11;1742611;81;21346;-42
2021/05/10 09:20:35;;;;;;;3.50;1.90;;;;;;;20.36;27.18;100351.10;1739154;81;21609;-42
2021/05/10 09:23:09;;;;;;;2.92;1.77;;;;;;;20.43;28.10;100348.92;1728966;81;21027;-42
2021/05/10 09:25:39;;;;;;;2.67;1.60;;;;;;;20.46;26.63;100352.23;1730797;81;21155;-42
2021/05/10 09:28:17;;;;;;;1.60;1.30;;;;;;;20.46;26.47;100359.91;1719860;81;21606;-42
2021/05/10 09:30:47;;;;;;;4.20;1.70;;;;;;;20.49;26.46;100353.58;1737008;81;21166;-42
2021/05/10 09:33:26;;;;;;;2.37;1.60;;;;;;;20.58;28.19;100357.27;1719642;82;21097;-42
2021/05/10 09:38:43;;;;;;;2.12;1.80;;;;;;;20.49;27.67;100328.00;1813767;78;22702;-42
2021/05/10 09:41:11;;;;;;;1.80;1.60;;;;;;;20.51;27.66;100335.28;1729946;79;21155;-42
2021/05/10 09:43:40;;;;;;;2.12;1.50;;;;;;;20.64;26.71;100330.86;1790512;79;22347;-42
2021/05/10 09:46:12;;;;;;;2.10;1.50;;;;;;;20.51;25.81;100287.08;1795209;79;21366;-42
2021/05/10 09:48:45;;;;;;;2.35;1.87;;;;;;;20.92;25.89;100332.03;1789674;79;21043;-42
2021/05/10 09:51:16;;;;;;;2.08;1.52;;;;;;;20.97;25.71;100326.68;1791016;79;21017;-42
2021/05/10 09:53:50;;;;;;;3.25;1.82;;;;;;;20.99;25.80;100329.83;1787226;79;20989;-42
2021/05/10 09:56:33;;;;;;;5.65;1.55;;;;;;;21.12;27.68;100320.65;1791586;79;21705;-42
2021/05/10 09:59:02;;;;;;;3.27;1.77;;;;;;;21.30;27.82;100319.75;1784768;79;21485;-42
2021/05/10 10:01:48;;;;;;;2.37;1.55;;;;;;;21.51;27.60;100318.14;1790201;79;21031;-42
2021/05/10 10:04:18;;;;;;;2.17;1.50;;;;;;;21.71;27.18;100307.28;1800562;78;21613;-42
2021/05/10 10:06:48;;;;;;;4.12;1.60;;;;;;;21.91;26.67;100311.00;1807968;78;21150;-42
2021/05/10 10:09:17;;;;;;;4.97;1.42;;;;;;;22.19;25.20;100305.14;1748766;82;21597;-42
2021/05/10 10:11:44;;;;;;;2.50;1.70;;;;;;;22.36;24.75;100290.91;1775163;80;21191;-42
2021/05/10 10:14:14;;;;;;;2.55;1.72;;;;;;;22.45;24.58;100290.58;1747713;82;21179;-42
2021/05/10 10:16:45;;;;;;;3.05;1.80;;;;;;;22.44;24.72;100293.14;1750346;80;21150;-42
2021/05/10 10:19:13;;;;;;;2.10;1.50;;;;;;;22.48;25.23;100291.11;1747317;81;21574;-42
2021/05/10 10:21:44;;;;;;;3.20;2.00;;;;;;;22.68;25.68;100291.20;1765808;81;21354;-42
2021/05/10 10:24:12;;;;;;;3.05;1.75;;;;;;;22.88;25.03;100286.57;1759864;81;21032;-42
2021/05/10 10:26:43;;;;;;;3.05;1.75;;;;;;;23.08;25.38;100274.78;1738222;80;21108;-42
2021/05/10 10:29:12;;;;;;;2.55;1.60;;;;;;;23.13;24.82;100271.53;1740628;81;21199;-42
2021/05/10 10:31:46;;;;;;;2.15;1.47;;;;;;;23.22;25.20;100264.84;1752552;81;21166;-42
2021/05/10 10:34:36;;;;;;;3.10;1.50;;;;;;;23.37;22.88;100259.23;1753073;81;21425;-42
2021/05/10 10:37:04;;;;;;;3.12;1.87;;;;;;;23.44;23.24;100264.61;1751276;81;21248;-42
2021/05/10 10:39:34;;;;;;;2.67;1.60;;;;;;;23.55;23.87;100265.83;1729336;82;21191;-42
2021/05/10 10:42:11;;;;;;;2.35;1.50;;;;;;;23.71;22.97;100266.69;1722327;82;21162;-42
2021/05/10 10:44:46;;;;;;;2.22;1.55;;;;;;;23.78;21.86;100259.61;1740878;82;22023;-42
2021/05/10 10:47:45;;;;;;;2.33;1.40;;;;;;;23.86;22.23;100253.94;1790146;78;21331;-42
2021/05/10 10:50:16;;;;;;;2.47;1.60;;;;;;;23.79;21.93;100252.87;1785797;78;21566;-42
2021/05/10 10:52:57;;;;;;;2.22;1.57;;;;;;;23.55;22.54;100251.39;1778409;79;21123;-43
2021/05/10 10:55:37;;;;;;;2.02;1.57;;;;;;;23.40;23.06;100252.23;1750394;80;21199;-42
2021/05/10 10:58:19;;;;;;;1.90;1.57;;;;;;;23.62;23.29;100248.48;1735331;81;21130;-42
2021/05/10 11:01:07;;;;;;;4.03;1.70;;;;;;;23.81;23.09;100242.76;1753942;80;21210;-43
2021/05/10 11:03:37;;;;;;;2.22;1.60;;;;;;;23.86;23.59;100248.39;1745947;81;21154;-42
2021/05/10 11:06:08;;;;;;;2.10;1.47;;;;;;;23.96;23.05;100246.00;1750278;80;21589;-42
2021/05/10 11:08:49;;;;;;;2.05;1.60;;;;;;;24.11;23.33;100245.84;1761485;81;21601;-42
2021/05/10 11:11:40;;;;;;;1.42;1.25;;;;;;;24.24;22.83;100243.41;1766444;81;21187;-42
2021/05/10 11:14:14;;;;;;;2.65;1.70;;;;;;;24.32;22.62;100239.86;1768305;81;22359;-42
2021/05/10 11:16:55;;;;;;;2.42;1.60;;;;;;;24.36;22.54;100233.63;1739470;81;21176;-42
2021/05/10 11:19:37;;;;;;;2.37;1.47;;;;;;;24.34;22.42;100233.89;1732548;82;21147;-42
2021/05/10 11:22:36;;;;;;;3.95;1.80;;;;;;;24.32;23.59;100226.00;1732094;81;21138;-42
2021/05/10 11:25:39;;;;;;;2.30;1.72;;;;;;;24.40;22.66;100219.70;1773328;79;21175;-42
2021/05/10 11:28:28;;;;;;;2.20;1.50;;;;;;;24.41;22.65;100213.70;1782462;79;21194;-42
2021/05/10 11:31:10;;;;;;;1.92;1.47;;;;;;;24.28;22.29;100208.68;1752597;79;21862;-42
2021/05/10 11:33:56;;;;;;;2.87;1.60;;;;;;;24.15;22.28;100207.78;1784848;79;21152;-42
2021/05/10 11:36:27;;;;;;;3.20;1.50;;;;;;;24.09;23.46;100205.34;1780674;79;22132;-42
2021/05/10 11:38:59;;;;;;;1.82;1.50;;;;;;;24.29;22.84;100201.94;1779462;79;21203;-43
2021/05/10 11:41:35;;;;;;;2.25;1.60;;;;;;;24.55;22.61;100202.27;1781660;78;21197;-43
2021/05/10 11:44:06;;;;;;;3.12;1.37;;;;;;;24.76;22.06;100198.79;1797240;78;21106;-43
2021/05/10 11:46:42;;;;;;;2.35;1.60;;;;;;;24.69;22.16;100194.98;1785112;79;21553;-43
2021/05/10 11:49:27;;;;;;;2.27;1.55;;;;;;;24.58;21.92;100196.48;1789966;78;21197;-43
2021/05/10 11:51:58;;;;;;;2.10;1.50;;;;;;;24.34;21.93;100162.63;1754631;80;21188;-43
2021/05/10 11:54:28;;;;;;;3.08;1.62;;;;;;;24.75;21.61;100195.84;1800846;78;21201;-43
2021/05/10 11:56:59;;;;;;;1.52;1.42;;;;;;;24.80;21.62;100188.38;1779921;79;21828;-43
2021/05/10 11:59:46;;;;;;;4.50;1.50;;;;;;;24.98;21.17;100192.27;1790880;78;21012;-43
2021/05/10 12:02:27;;;;;;;2.17;1.60;;;;;;;25.29;20.88;100173.80;1759642;80;21146;-43